createdAt,value
2022-10-11T00:00:28.791Z,6.72
2022-10-11T00:02:55.183Z,4.13
2022-10-11T00:05:21.543Z,5.80
2022-10-11T00:07:47.937Z,6.72
2022-10-11T00:10:14.309Z,4.43
2022-10-11T00:12:40.711Z,6.00
2022-10-11T00:15:07.094Z,3.42
2022-10-11T00:17:33.495Z,6.97
2022-10-11T00:19:59.871Z,5.65
2022-10-11T00:22:26.275Z,4.47
2022-10-11T00:24:52.671Z,6.97
2022-10-11T00:27:19.073Z,8.18
2022-10-11T00:29:45.456Z,4.82
2022-10-11T00:32:11.825Z,5.70
2022-10-11T00:34:38.230Z,5.15
2022-10-11T00:37:04.627Z,6.43
2022-10-11T00:39:31.021Z,6.30
2022-10-11T00:41:57.462Z,8.38
2022-10-11T00:44:23.877Z,5.95
2022-10-11T00:46:53.643Z,4.97
2022-10-11T00:49:22.078Z,5.45
2022-10-11T00:51:48.454Z,7.20
2022-10-11T00:54:14.860Z,4.97
2022-10-11T00:56:41.241Z,4.78
2022-10-11T00:59:07.670Z,5.85
2022-10-11T01:01:34.159Z,6.07
2022-10-11T01:04:00.634Z,7.18
2022-10-11T01:06:27.027Z,5.28
2022-10-11T01:08:53.428Z,6.43
2022-10-11T01:11:19.810Z,5.95
2022-10-11T01:13:46.215Z,7.95
2022-10-11T01:16:12.615Z,4.03
2022-10-11T01:18:39.012Z,8.13
2022-10-11T01:21:05.457Z,5.05
2022-10-11T01:23:31.847Z,5.45
2022-10-11T01:25:58.254Z,3.97
2022-10-11T01:28:24.786Z,5.63
2022-10-11T01:30:51.240Z,5.50
2022-10-11T01:33:17.630Z,4.53
2022-10-11T01:35:44.045Z,5.47
2022-10-11T01:38:10.430Z,5.50
2022-10-11T01:40:36.847Z,6.28
2022-10-11T01:43:03.248Z,6.80
2022-10-11T01:45:29.678Z,6.68
2022-10-11T01:47:56.066Z,5.78
2022-10-11T01:50:22.487Z,5.43
2022-10-11T01:52:48.908Z,7.03
2022-10-11T01:55:15.311Z,6.72
2022-10-11T01:57:41.700Z,5.55
2022-10-11T02:00:08.117Z,6.65
2022-10-11T02:02:34.495Z,6.32
2022-10-11T02:05:00.903Z,12.80
2022-10-11T02:07:27.287Z,6.88
2022-10-11T02:09:53.781Z,11.77
2022-10-11T02:12:20.168Z,5.80
2022-10-11T02:14:46.563Z,7.45
2022-10-11T02:17:12.946Z,5.30
2022-10-11T02:19:39.334Z,8.77
2022-10-11T02:22:05.732Z,8.15
2022-10-11T02:24:32.138Z,5.35
2022-10-11T02:26:58.539Z,4.95
2022-10-11T02:29:24.930Z,6.00
2022-10-11T02:31:51.330Z,6.40
2022-10-11T02:34:17.709Z,5.78
2022-10-11T02:36:44.101Z,6.80
2022-10-11T02:39:10.539Z,5.60
2022-10-11T02:41:36.930Z,6.18
2022-10-11T02:44:03.326Z,5.22
2022-10-11T02:46:29.725Z,6.00
2022-10-11T02:48:56.126Z,6.65
2022-10-11T02:51:22.519Z,8.07
2022-10-11T02:53:48.904Z,5.60
2022-10-11T02:56:15.330Z,7.80
2022-10-11T02:58:41.713Z,5.53
2022-10-11T03:01:08.161Z,7.82
2022-10-11T03:03:34.580Z,5.00
2022-10-11T03:06:01.181Z,5.68
2022-10-11T03:08:27.855Z,6.25
2022-10-11T03:10:54.266Z,7.13
2022-10-11T03:13:20.658Z,4.55
2022-10-11T03:15:47.034Z,3.47
2022-10-11T03:18:13.504Z,6.40
2022-10-11T03:20:39.883Z,6.78
2022-10-11T03:23:06.275Z,6.90
2022-10-11T03:25:32.662Z,9.55
2022-10-11T03:27:59.080Z,8.82
2022-10-11T03:30:25.467Z,10.15
2022-10-11T03:32:51.866Z,5.68
2022-10-11T03:35:18.236Z,5.13
2022-10-11T03:37:44.638Z,7.30
2022-10-11T03:40:11.026Z,16.77
2022-10-11T03:42:37.459Z,6.72
2022-10-11T03:45:03.848Z,7.55
2022-10-11T03:47:30.243Z,7.95
2022-10-11T03:49:56.624Z,10.57
2022-10-11T03:52:23.035Z,13.93
2022-10-11T03:54:49.423Z,7.03
2022-10-11T03:57:15.816Z,6.88
2022-10-11T03:59:42.210Z,7.40
2022-10-11T04:02:08.655Z,7.70
2022-10-11T04:04:35.107Z,4.47
2022-10-11T04:07:01.510Z,4.30
2022-10-11T04:09:27.895Z,5.45
2022-10-11T04:11:54.307Z,7.70
2022-10-11T04:14:20.724Z,5.30
2022-10-11T04:16:47.110Z,8.30
2022-10-11T04:19:13.510Z,5.60
2022-10-11T04:21:39.888Z,4.25
2022-10-11T04:24:06.291Z,4.60
2022-10-11T04:26:32.723Z,6.20
2022-10-11T04:28:59.225Z,5.10
2022-10-11T04:31:25.648Z,6.10
2022-10-11T04:33:52.046Z,5.88
2022-10-11T04:36:18.426Z,9.88
2022-10-11T04:38:44.818Z,6.40
2022-10-11T04:41:11.214Z,5.13
2022-10-11T04:43:37.642Z,6.03
2022-10-11T04:46:04.509Z,5.00
2022-10-11T04:48:31.057Z,7.93
2022-10-11T04:50:57.470Z,4.72
2022-10-11T04:53:23.850Z,4.80
2022-10-11T04:55:50.251Z,6.95
2022-10-11T04:58:16.633Z,8.82
2022-10-11T05:00:43.023Z,4.25
2022-10-11T05:03:09.401Z,4.95
2022-10-11T05:05:35.797Z,5.82
2022-10-11T05:08:02.186Z,5.43
2022-10-11T05:10:28.587Z,6.63
2022-10-11T05:12:55.032Z,6.57
2022-10-11T05:15:21.470Z,7.53
2022-10-11T05:17:47.841Z,5.80
2022-10-11T05:20:14.259Z,8.55
2022-10-11T05:22:40.646Z,6.47
2022-10-11T05:25:07.086Z,6.97
2022-10-11T05:27:33.477Z,5.25
2022-10-11T05:29:59.982Z,7.97
2022-10-11T05:32:28.050Z,8.82
2022-10-11T05:34:54.824Z,6.20
2022-10-11T05:37:21.211Z,6.63
2022-10-11T05:39:47.587Z,10.00
2022-10-11T05:42:13.998Z,8.90
2022-10-11T05:44:40.386Z,9.45
2022-10-11T05:47:06.787Z,6.05
2022-10-11T05:49:33.189Z,7.18
2022-10-11T05:51:59.590Z,7.53
2022-10-11T05:54:25.983Z,5.72
2022-10-11T05:56:52.391Z,10.57
2022-10-11T05:59:18.770Z,6.28
2022-10-11T06:01:45.229Z,8.43
2022-10-11T06:04:11.660Z,4.97
2022-10-11T06:06:38.063Z,6.00
2022-10-11T06:09:04.438Z,8.73
2022-10-11T06:11:30.845Z,7.57
2022-10-11T06:13:57.288Z,6.15
2022-10-11T06:16:23.703Z,6.50
2022-10-11T06:18:50.086Z,5.90
2022-10-11T06:21:16.494Z,5.95
2022-10-11T06:23:42.882Z,5.68
2022-10-11T06:26:09.912Z,5.18
2022-10-11T06:28:36.643Z,5.45
2022-10-11T06:31:03.100Z,9.20
2022-10-11T06:33:29.489Z,7.25
2022-10-11T06:35:55.961Z,6.35
2022-10-11T06:38:24.381Z,6.10
2022-10-11T06:40:50.799Z,13.20
2022-10-11T06:43:17.515Z,7.32
2022-10-11T06:45:43.960Z,7.30
2022-10-11T06:48:10.385Z,8.32
2022-10-11T06:50:58.630Z,7.47
2022-10-11T06:53:23.256Z,7.45
2022-10-11T06:55:49.817Z,8.75
2022-10-11T06:58:16.343Z,7.25
2022-10-11T07:00:43.179Z,8.43
2022-10-11T07:03:09.717Z,6.90
2022-10-11T07:05:36.113Z,7.18
2022-10-11T07:08:02.552Z,6.00
2022-10-11T07:10:28.962Z,7.55
2022-10-11T07:12:55.411Z,9.27
2022-10-11T07:15:21.791Z,8.50
2022-10-11T07:17:48.192Z,7.45
2022-10-11T07:20:14.594Z,6.22
2022-10-11T07:22:40.998Z,10.18
2022-10-11T07:25:07.421Z,6.18
2022-10-11T07:27:33.828Z,6.72
2022-10-11T07:30:00.249Z,6.15
2022-10-11T07:32:26.708Z,7.38
2022-10-11T07:34:53.165Z,6.90
2022-10-11T07:37:19.569Z,10.98
2022-10-11T07:39:45.980Z,6.90
2022-10-11T07:42:12.362Z,8.43
2022-10-11T07:44:38.858Z,8.82
2022-10-11T07:47:10.315Z,10.98
2022-10-11T07:49:37.576Z,6.45
2022-10-11T07:52:03.980Z,8.23
2022-10-11T07:54:30.381Z,8.50
2022-10-11T07:56:57.078Z,8.38
2022-10-11T07:59:23.550Z,9.45
2022-10-11T08:01:49.994Z,7.63
2022-10-11T08:04:16.480Z,9.02
2022-10-11T08:06:42.860Z,7.35
2022-10-11T08:09:09.274Z,7.97
2022-10-11T08:11:35.657Z,8.20
2022-10-11T08:14:02.051Z,8.98
2022-10-11T08:16:28.471Z,8.10
2022-10-11T08:18:54.899Z,6.20
2022-10-11T08:21:21.313Z,9.15
2022-10-11T08:23:47.706Z,9.07
2022-10-11T08:26:14.138Z,5.95
2022-10-11T08:28:40.577Z,8.35
2022-10-11T08:31:07.013Z,10.95
2022-10-11T08:33:33.417Z,9.30
2022-10-11T08:35:59.810Z,8.27
2022-10-11T08:38:26.222Z,8.20
2022-10-11T08:40:52.630Z,8.18
2022-10-11T08:43:19.174Z,10.35
2022-10-11T08:45:45.640Z,9.60
2022-10-11T08:48:12.239Z,8.52
2022-10-11T08:50:38.656Z,9.73
2022-10-11T08:53:05.084Z,9.13
2022-10-11T08:55:31.551Z,6.88
2022-10-11T08:57:57.975Z,12.38
2022-10-11T09:00:24.382Z,6.82
2022-10-11T09:03:07.428Z,6.88
2022-10-11T09:05:34.758Z,10.73
2022-10-11T09:08:01.282Z,9.80
2022-10-11T09:10:27.746Z,8.82
2022-10-11T09:12:54.172Z,7.53
2022-10-11T09:15:20.592Z,11.60
2022-10-11T09:17:47.030Z,11.10
2022-10-11T09:20:13.508Z,11.18
2022-10-11T09:22:39.971Z,9.35
2022-10-11T09:25:06.370Z,7.85
2022-10-11T09:28:00.849Z,8.07
2022-10-11T09:30:20.110Z,12.07
2022-10-11T09:32:46.608Z,10.93
2022-10-11T09:35:13.064Z,9.40
2022-10-11T09:37:39.479Z,8.82
2022-10-11T09:40:05.891Z,10.23
2022-10-11T09:42:32.367Z,9.45
2022-10-11T09:44:58.795Z,8.27
2022-10-11T09:47:25.291Z,8.63
2022-10-11T09:49:51.823Z,9.52
2022-10-11T09:52:18.404Z,7.65
2022-10-11T09:54:44.904Z,9.05
2022-10-11T09:57:11.352Z,9.68
2022-10-11T09:59:37.783Z,9.40
2022-10-11T10:02:04.332Z,8.32
2022-10-11T10:04:30.803Z,13.85
2022-10-11T10:06:57.278Z,9.98
2022-10-11T10:09:23.752Z,9.20
2022-10-11T10:11:50.231Z,9.30
2022-10-11T10:14:16.732Z,8.63
2022-10-11T10:16:43.162Z,9.88
2022-10-11T10:19:09.595Z,10.38
2022-10-11T10:21:36.064Z,12.07
2022-10-11T10:24:02.497Z,13.48
2022-10-11T10:26:29.082Z,12.55
2022-10-11T10:28:55.601Z,11.57
2022-10-11T10:31:22.168Z,7.50
2022-10-11T10:33:48.594Z,14.25
2022-10-11T10:36:15.068Z,11.57
2022-10-11T10:38:41.590Z,12.27
2022-10-11T10:41:08.039Z,13.88
2022-10-11T10:43:34.435Z,9.18
2022-10-11T10:46:00.931Z,8.48
2022-10-11T10:48:27.587Z,10.50
2022-10-11T10:50:54.084Z,11.40
2022-10-11T10:53:20.547Z,9.18
2022-10-11T10:55:47.065Z,13.43
2022-10-11T10:58:18.469Z,9.13
2022-10-11T11:00:45.334Z,11.63
2022-10-11T11:03:11.787Z,8.32
2022-10-11T11:05:38.374Z,9.63
2022-10-11T11:08:04.842Z,10.07
2022-10-11T11:10:31.410Z,10.45
2022-10-11T11:12:57.962Z,10.35
2022-10-11T11:15:29.947Z,11.73
2022-10-11T11:17:58.970Z,9.98
2022-10-11T11:20:25.460Z,8.90
2022-10-11T11:22:52.029Z,10.50
2022-10-11T11:25:19.003Z,13.20
2022-10-11T11:27:45.797Z,7.68
2022-10-11T11:30:12.313Z,9.80
2022-10-11T11:32:41.240Z,9.45
2022-10-11T11:35:11.436Z,7.72
2022-10-11T11:37:37.891Z,11.63
2022-10-11T11:40:04.738Z,14.90
2022-10-11T11:42:31.244Z,9.63
2022-10-11T11:44:57.813Z,12.75
2022-10-11T11:47:24.419Z,9.57
2022-10-11T11:49:50.881Z,12.23
2022-10-11T11:52:17.348Z,10.63
2022-10-11T11:54:43.829Z,11.60
2022-10-11T11:57:10.302Z,10.75
2022-10-11T11:59:36.787Z,13.10
2022-10-11T12:02:03.335Z,11.75
2022-10-11T12:04:29.993Z,9.43
2022-10-11T12:07:14.881Z,18.25
2022-10-11T12:09:42.597Z,11.85
2022-10-11T12:12:09.065Z,7.93
2022-10-11T12:14:35.539Z,10.23
2022-10-11T12:17:02.022Z,10.60
2022-10-11T12:19:28.578Z,7.35
2022-10-11T12:21:55.094Z,13.75
2022-10-11T12:24:21.526Z,8.30
2022-10-11T12:26:47.971Z,9.55
2022-10-11T12:29:14.461Z,11.63
2022-10-11T12:31:45.262Z,10.52
2022-10-11T12:34:12.786Z,12.85
2022-10-11T12:36:39.253Z,12.93
2022-10-11T12:39:05.793Z,9.35
2022-10-11T12:41:32.439Z,14.35
2022-10-11T12:43:59.087Z,9.13
2022-10-11T12:46:25.573Z,11.40
2022-10-11T12:48:51.994Z,11.00
2022-10-11T12:51:18.385Z,7.63
2022-10-11T12:53:48.147Z,13.20
2022-10-11T12:56:20.170Z,10.25
2022-10-11T12:58:46.633Z,14.07
2022-10-11T13:01:13.085Z,11.98
2022-10-11T13:03:39.608Z,10.35
2022-10-11T13:06:06.285Z,7.80
2022-10-11T13:08:32.941Z,11.75
2022-10-11T13:10:59.393Z,9.50
2022-10-11T13:13:25.778Z,11.60
2022-10-11T13:15:52.177Z,8.55
2022-10-11T13:18:18.566Z,11.15
2022-10-11T13:20:45.017Z,13.18
2022-10-11T13:23:11.418Z,16.20
2022-10-11T13:25:37.822Z,10.27
2022-10-11T13:28:04.213Z,10.18
2022-10-11T13:30:30.635Z,11.32
2022-10-11T13:32:57.026Z,10.00
2022-10-11T13:35:24.743Z,9.43
2022-10-11T13:37:51.415Z,13.38
2022-10-11T13:40:17.826Z,7.80
2022-10-11T13:42:44.252Z,8.63
2022-10-11T13:45:10.690Z,9.43
2022-10-11T13:47:37.080Z,8.68
2022-10-11T13:50:03.507Z,11.32
2022-10-11T13:52:29.892Z,11.07
2022-10-11T13:54:56.345Z,8.32
2022-10-11T13:57:22.883Z,9.98
2022-10-11T13:59:49.316Z,10.30
2022-10-11T14:02:15.722Z,11.77
2022-10-11T14:04:42.102Z,11.63
2022-10-11T14:07:08.563Z,10.77
2022-10-11T14:09:34.950Z,10.52
2022-10-11T14:12:01.399Z,16.42
2022-10-11T14:14:27.793Z,12.55
2022-10-11T14:16:54.195Z,8.80
2022-10-11T14:19:20.592Z,10.10
2022-10-11T14:21:47.007Z,9.88
2022-10-11T14:24:13.404Z,10.10
2022-10-11T14:26:39.814Z,9.95
2022-10-11T14:29:06.190Z,10.35
2022-10-11T14:31:32.781Z,11.70
2022-10-11T14:33:59.188Z,8.40
2022-10-11T14:36:25.661Z,8.95
2022-10-11T14:38:52.092Z,13.40
2022-10-11T14:41:18.496Z,13.30
2022-10-11T14:43:44.916Z,13.80
2022-10-11T14:46:11.295Z,15.25
2022-10-11T14:48:54.351Z,10.98
2022-10-11T14:51:22.192Z,9.68
2022-10-11T14:53:49.136Z,12.50
2022-10-11T14:56:19.018Z,11.32
2022-10-11T14:58:47.807Z,11.40
2022-10-11T15:01:14.303Z,8.52
2022-10-11T15:03:40.743Z,12.93
2022-10-11T15:06:07.496Z,10.20
2022-10-11T15:08:34.304Z,12.95
2022-10-11T15:11:00.682Z,9.48
2022-10-11T15:13:27.089Z,15.18
2022-10-11T15:15:53.495Z,19.50
2022-10-11T15:18:19.933Z,13.32
2022-10-11T15:20:46.435Z,13.18
2022-10-11T15:23:12.850Z,12.98
2022-10-11T15:25:39.243Z,14.10
2022-10-11T15:28:05.671Z,10.48
2022-10-11T15:30:34.845Z,10.95
2022-10-11T15:33:03.566Z,11.00
2022-10-11T15:35:30.010Z,14.80
2022-10-11T15:37:56.393Z,12.38
2022-10-11T15:40:22.804Z,11.27
2022-10-11T15:42:49.181Z,9.82
2022-10-11T15:45:15.606Z,12.95
2022-10-11T15:47:41.982Z,10.27
2022-10-11T15:50:08.435Z,9.75
2022-10-11T15:52:34.844Z,9.82
2022-10-11T15:55:01.289Z,11.43
2022-10-11T15:57:27.672Z,10.00
2022-10-11T15:59:54.082Z,14.23
2022-10-11T16:02:20.465Z,12.70
2022-10-11T16:04:46.883Z,17.30
2022-10-11T16:07:13.297Z,11.85
2022-10-11T16:09:39.721Z,8.85
2022-10-11T16:12:06.121Z,9.60
2022-10-11T16:14:32.526Z,11.65
2022-10-11T16:17:01.925Z,14.52
2022-10-11T16:19:28.330Z,10.82
2022-10-11T16:21:54.719Z,13.82
2022-10-11T16:24:21.114Z,12.23
2022-10-11T16:26:47.505Z,10.32
2022-10-11T16:29:13.881Z,15.00
2022-10-11T16:31:40.294Z,11.52
2022-10-11T16:34:06.705Z,13.18
2022-10-11T16:36:33.119Z,13.82
2022-10-11T16:38:59.499Z,12.05
2022-10-11T16:41:25.904Z,13.55
2022-10-11T16:43:52.283Z,12.98
2022-10-11T16:46:18.677Z,11.18
2022-10-11T16:48:45.058Z,11.02
2022-10-11T16:51:11.484Z,10.23
2022-10-11T16:53:37.887Z,14.43
2022-10-11T16:56:04.661Z,13.18
2022-10-11T16:58:31.199Z,10.40
2022-10-11T17:00:57.660Z,11.65
2022-10-11T17:03:24.103Z,15.27
2022-10-11T17:05:50.513Z,14.00
2022-10-11T17:08:16.978Z,14.57
2022-10-11T17:10:43.360Z,9.13
2022-10-11T17:13:09.779Z,13.82
2022-10-11T17:15:36.209Z,15.45
2022-10-11T17:18:02.751Z,12.32
2022-10-11T17:20:29.136Z,16.60
2022-10-11T17:22:55.525Z,13.80
2022-10-11T17:25:21.933Z,14.23
2022-10-11T17:27:48.316Z,15.45
2022-10-11T17:30:14.727Z,12.65
2022-10-11T17:32:41.133Z,13.55
2022-10-11T17:35:07.547Z,11.00
2022-10-11T17:37:33.943Z,12.38
2022-10-11T17:40:00.356Z,15.63
2022-10-11T17:42:26.750Z,16.05
2022-10-11T17:44:53.150Z,11.13
2022-10-11T17:47:19.565Z,13.82
2022-10-11T17:49:45.978Z,14.00
2022-10-11T17:52:12.360Z,9.73
2022-10-11T17:54:38.783Z,9.88
2022-10-11T17:57:05.181Z,16.23
2022-10-11T17:59:31.674Z,19.95
2022-10-11T18:01:58.058Z,11.32
2022-10-11T18:04:24.475Z,17.95
2022-10-11T18:06:50.909Z,13.20
2022-10-11T18:09:17.315Z,10.13
2022-10-11T18:11:43.707Z,16.45
2022-10-11T18:14:10.112Z,15.98
2022-10-11T18:16:36.541Z,13.80
2022-10-11T18:19:02.941Z,18.75
2022-10-11T18:21:33.916Z,17.05
2022-10-11T18:24:00.847Z,18.83
2022-10-11T18:26:30.440Z,17.08
2022-10-11T18:28:57.555Z,16.35
2022-10-11T18:31:24.038Z,17.75
2022-10-11T18:33:50.452Z,16.17
2022-10-11T18:36:16.845Z,20.30
2022-10-11T18:38:43.229Z,17.05
2022-10-11T18:41:09.748Z,18.38
2022-10-11T18:43:36.225Z,19.45
2022-10-11T18:46:02.668Z,21.00
2022-10-11T18:48:29.100Z,17.40
2022-10-11T18:50:55.526Z,14.13
2022-10-11T18:53:21.938Z,18.73
2022-10-11T18:55:48.332Z,19.05
2022-10-11T18:58:14.780Z,16.38
2022-10-11T19:00:41.612Z,21.10
2022-10-11T19:03:08.226Z,19.92
2022-10-11T19:05:34.594Z,16.08
2022-10-11T19:08:01.004Z,13.48
2022-10-11T19:10:27.405Z,16.83
2022-10-11T19:12:53.805Z,17.42
2022-10-11T19:15:20.185Z,17.70
2022-10-11T19:17:46.582Z,15.13
2022-10-11T19:20:12.951Z,17.23
2022-10-11T19:22:39.461Z,19.52
2022-10-11T19:25:05.876Z,17.80
2022-10-11T19:27:32.323Z,18.90
2022-10-11T19:29:58.698Z,17.85
2022-10-11T19:32:25.175Z,20.80
2022-10-11T19:34:51.573Z,16.88
2022-10-11T19:37:17.995Z,20.70
2022-10-11T19:39:44.394Z,20.90
2022-10-11T19:42:10.815Z,18.20
2022-10-11T19:44:39.563Z,22.40
2022-10-11T19:47:06.260Z,19.20
2022-10-11T19:49:33.748Z,16.17
2022-10-11T19:52:00.140Z,17.00
2022-10-11T19:54:26.551Z,18.27
2022-10-11T19:56:52.938Z,16.65
2022-10-11T19:59:19.326Z,15.88
2022-10-11T20:01:51.316Z,19.08
2022-10-11T20:04:47.171Z,20.02
2022-10-11T20:07:05.348Z,21.35
2022-10-11T20:09:31.765Z,21.33
2022-10-11T20:11:58.195Z,18.75
2022-10-11T20:14:24.609Z,20.25
2022-10-11T20:16:50.993Z,17.55
2022-10-11T20:19:17.398Z,18.42
2022-10-11T20:21:43.796Z,16.65
2022-10-11T20:24:10.196Z,16.27
2022-10-11T20:26:36.629Z,19.60
2022-10-11T20:29:03.188Z,18.38
2022-10-11T20:31:29.562Z,20.10
2022-10-11T20:33:55.946Z,18.73
2022-10-11T20:36:22.324Z,22.35
2022-10-11T20:38:48.739Z,17.02
2022-10-11T20:41:15.116Z,20.13
2022-10-11T20:43:41.513Z,16.20
2022-10-11T20:46:07.903Z,20.98
2022-10-11T20:48:34.305Z,23.83
2022-10-11T20:51:00.686Z,21.38
2022-10-11T20:53:27.080Z,19.35
2022-10-11T20:55:53.472Z,19.77
2022-10-11T20:58:19.878Z,23.33
2022-10-11T21:00:46.240Z,16.00
2022-10-11T21:03:12.642Z,21.83
2022-10-11T21:05:39.023Z,21.15
2022-10-11T21:08:05.400Z,18.88
2022-10-11T21:10:31.792Z,22.85
2022-10-11T21:12:58.174Z,24.70
2022-10-11T21:15:24.568Z,19.70
2022-10-11T21:17:50.943Z,26.35
2022-10-11T21:20:17.354Z,20.27
2022-10-11T21:22:43.729Z,19.02
2022-10-11T21:25:10.115Z,18.02
2022-10-11T21:27:36.539Z,23.30
2022-10-11T21:30:03.051Z,26.88
2022-10-11T21:32:29.442Z,19.60
2022-10-11T21:34:55.841Z,22.10
2022-10-11T21:37:22.241Z,21.05
2022-10-11T21:39:48.639Z,24.55
2022-10-11T21:42:15.017Z,20.40
2022-10-11T21:44:41.410Z,22.55
2022-10-11T21:47:07.953Z,17.05
2022-10-11T21:49:34.424Z,19.20
2022-10-11T21:52:00.805Z,21.90
2022-10-11T21:54:27.245Z,23.10
2022-10-11T21:56:53.623Z,22.42
2022-10-11T21:59:20.023Z,21.33
2022-10-11T22:01:46.459Z,21.60
2022-10-11T22:04:12.883Z,23.42
2022-10-11T22:06:39.269Z,22.88
2022-10-11T22:09:05.671Z,21.73
2022-10-11T22:11:32.041Z,25.73
2022-10-11T22:13:58.453Z,22.05
2022-10-11T22:16:24.825Z,22.55
2022-10-11T22:18:51.214Z,22.77
2022-10-11T22:21:17.596Z,25.25
2022-10-11T22:23:43.972Z,20.65
2022-10-11T22:26:10.372Z,25.08
2022-10-11T22:28:36.829Z,22.35
2022-10-11T22:31:03.253Z,24.38
2022-10-11T22:33:29.637Z,23.50
2022-10-11T22:35:56.040Z,24.45
2022-10-11T22:38:22.418Z,24.90
2022-10-11T22:40:48.816Z,24.50
2022-10-11T22:43:15.199Z,26.85
2022-10-11T22:45:41.593Z,21.48
2022-10-11T22:48:07.962Z,21.92
2022-10-11T22:50:34.345Z,22.83
2022-10-11T22:53:00.717Z,24.38
2022-10-11T22:55:27.110Z,27.20
2022-10-11T22:57:53.494Z,25.55
2022-10-11T23:00:19.897Z,23.17
2022-10-11T23:02:46.278Z,26.67
2022-10-11T23:05:12.671Z,27.33
2022-10-11T23:07:39.302Z,24.88
2022-10-11T23:10:05.845Z,25.02
2022-10-11T23:12:32.235Z,23.83
2022-10-11T23:14:58.627Z,28.15
2022-10-11T23:17:25.018Z,24.70
2022-10-11T23:19:51.417Z,28.10
2022-10-11T23:22:17.811Z,26.95
2022-10-11T23:24:44.223Z,31.35
2022-10-11T23:27:10.592Z,27.95
2022-10-11T23:29:36.961Z,30.90
2022-10-11T23:32:03.360Z,25.83
2022-10-11T23:34:29.761Z,28.25
2022-10-11T23:36:56.140Z,23.08
2022-10-11T23:39:22.515Z,25.90
2022-10-11T23:41:48.910Z,25.95
2022-10-11T23:44:15.280Z,27.10
2022-10-11T23:46:41.678Z,24.15
2022-10-11T23:49:08.053Z,23.52
2022-10-11T23:51:34.451Z,27.63
2022-10-11T23:54:00.838Z,27.75
2022-10-11T23:56:27.267Z,20.45
2022-10-11T23:58:53.643Z,22.42
